気象予報士の航空気象 今朝は霧、発生せず

*All archives   *Admin

スポンサーサイト

上記の広告は1ヶ月以上更新のないブログに表示されています。
新しい記事を書く事で広告が消せます。
--:--  |  スポンサー広告  |  EDIT  |  Top↑

2015.11.19 (Thu)

今朝は霧、発生せず

RJAA 181800Z 01018KT 3200 SHRA BR FEW004 SCT007 BKN010 13/12 Q1011 TEMPO 01022G32KT 3000 SHRA BR FEW002 BKN005 RMK 1ST004 3ST007 6CU010 A2985

昨日から雨が降り続け、明け方にやんだようです。

RJAA 182000Z 36020KT 9999 -SHRA FEW007 SCT013 BKN020 12/10 Q1012 TEMPO 01024G35KT RMK 1ST007 4CU013 6CU020 A2990
RJAA 182030Z 02017KT 9999 FEW007 SCT015 BKN050 12/11 Q1013 NOSIG RMK 1ST007 4CU015 6SC050 A2992

昨日と違い、霧は発生せず。発生しない理由はおそらく3点。
・風が弱くない。5kt以下の凪の状態ではない。
・雨がやんだ後、スカッパレにならず、放射冷却起きず。
・明け方にやんだので、冷え込みが不十分。

18日の降雨は山茶花梅雨の雨によるもので、前線が通過後、雨がやんでも、強い風が吹かず、深夜にやんだこと、その後に晴れたこと、また、その前まで暖かい日が続き、地表や湖沼の水温が上がっていたことが要因でしょう。

19日の早朝はどれもあてはまりません。

霧は発生せず。
スポンサーサイト
14:48  |  時事  |  TB(0)  |  CM(0)  |  EDIT  |  Top↑

コメントを投稿する


 管理者だけに表示  (非公開コメント投稿可能)

▲PageTop

この記事のトラックバックURL

→http://weathereucalyptus.blog115.fc2.com/tb.php/693-ea67f764
この記事にトラックバックする(FC2ブログユーザー)

この記事へのトラックバック

▲PageTop

 | BLOGTOP | 
上記広告は1ヶ月以上更新のないブログに表示されています。新しい記事を書くことで広告を消せます。